Time;durP1;ratioP1;P1;durP2;ratioP2;P2;SDS_P1;SDS_P2;PMS_P1;PMS_P2;Temp;Humidity;BMP_temperature;BMP_pressure;BME280_temperature;BME280_humidity;BME280_pressure;Samples;Min_cycle;Max_cycle;Signal;HPM_P1;HPM_P2
2021/01/13 08:09:20;;;;;;;27.05;13.20;;;;;;;-0.06;61.69;99373.99;1772915;77;27835;-73
2021/01/13 08:12:10;;;;;;;30.00;12.03;;;;;;;-0.04;61.71;99366.61;1753229;81;21185;-73
2021/01/13 08:15:06;;;;;;;39.10;14.13;;;;;;;0.03;61.63;99359.63;1743707;81;21414;-74
2021/01/13 08:17:54;;;;;;;50.23;21.00;;;;;;;0.12;61.49;99361.88;1700905;83;21935;-73
2021/01/13 08:20:34;;;;;;;50.70;19.87;;;;;;;0.19;61.56;99356.21;1700106;84;21169;-75
2021/01/13 08:23:17;;;;;;;75.40;29.90;;;;;;;0.28;61.57;99354.77;1696643;83;22730;-72
2021/01/13 08:25:46;;;;;;;38.60;13.95;;;;;;;0.38;61.45;99351.13;1694123;84;21730;-74
2021/01/13 08:30:56;;;;;;;41.20;13.48;;;;;;;0.53;61.00;99341.45;1845410;77;22164;-74
2021/01/13 08:33:25;;;;;;;43.28;14.25;;;;;;;0.51;60.82;99338.06;1817976;79;21114;-73
2021/01/13 08:35:57;;;;;;;50.17;18.55;;;;;;;0.47;60.64;99336.19;1816170;78;21658;-71
2021/01/13 08:38:23;;;;;;;41.90;14.90;;;;;;;0.48;60.79;99333.00;1795898;78;21863;-71
2021/01/13 08:40:51;;;;;;;35.98;14.28;;;;;;;0.52;60.67;99332.52;1785924;78;21686;-72
2021/01/13 08:43:19;;;;;;;38.35;13.53;;;;;;;0.56;60.52;99336.58;1800129;78;21120;-71
2021/01/13 08:45:49;;;;;;;37.65;12.00;;;;;;;0.59;60.50;99334.06;1786231;78;21180;-71
2021/01/13 08:48:20;;;;;;;38.00;12.78;;;;;;;0.64;60.38;99328.54;1784913;79;21889;-71
2021/01/13 08:51:11;;;;;;;23.40;10.72;;;;;;;0.70;60.23;99331.13;1785983;79;21567;-73
2021/01/13 08:53:39;;;;;;;24.63;11.90;;;;;;;0.75;60.07;99322.55;1786128;79;21157;-72
2021/01/13 08:56:07;;;;;;;27.10;13.45;;;;;;;0.80;59.90;99312.13;1758425;79;22116;-76
2021/01/13 08:58:35;;;;;;;30.50;10.93;;;;;;;0.84;59.73;99310.80;1725939;81;21208;-70
2021/01/13 09:01:06;;;;;;;22.40;11.45;;;;;;;0.86;59.60;99304.23;1745133;81;22157;-68
2021/01/13 09:03:40;;;;;;;23.60;9.98;;;;;;;0.91;59.60;99307.29;1730493;81;21821;-70
2021/01/13 09:06:22;;;;;;;29.82;11.97;;;;;;;0.98;59.25;99296.69;1753246;80;21158;-73
2021/01/13 09:08:57;;;;;;;27.62;11.65;;;;;;;1.04;59.14;99289.30;1729579;83;21198;-70
2021/01/13 09:11:36;;;;;;;31.15;13.10;;;;;;;1.11;59.00;99282.73;1722108;83;21836;-72
2021/01/13 09:14:19;;;;;;;28.90;11.05;;;;;;;1.12;58.63;99281.22;1714016;83;21931;-72
2021/01/13 09:16:50;;;;;;;24.20;12.00;;;;;;;1.13;58.76;99281.56;1699887;82;21227;-71
2021/01/13 09:19:37;;;;;;;23.98;10.78;;;;;;;1.15;58.55;99271.45;1713574;83;21165;-68
2021/01/13 09:22:09;;;;;;;17.37;8.63;;;;;;;1.18;58.42;99272.98;1713229;82;21146;-72
2021/01/13 09:24:41;;;;;;;27.70;11.45;;;;;;;1.17;58.25;99274.83;1702841;83;21218;-68
2021/01/13 09:27:12;;;;;;;26.20;11.43;;;;;;;1.10;58.10;99283.75;1711378;82;21863;-69
2021/01/13 09:29:53;;;;;;;24.40;10.72;;;;;;;1.09;58.28;99286.11;1719888;83;21906;-70
2021/01/13 09:32:22;;;;;;;29.12;11.05;;;;;;;0.99;58.07;99286.25;1740453;82;21475;-71
2021/01/13 09:34:51;;;;;;;30.75;12.58;;;;;;;0.82;58.21;99286.70;1736334;82;21382;-68
2021/01/13 09:37:21;;;;;;;30.62;13.05;;;;;;;0.77;58.79;99289.03;1746664;82;21147;-67
2021/01/13 09:40:01;;;;;;;28.60;11.35;;;;;;;0.81;59.06;99292.25;1747661;80;21162;-70
2021/01/13 09:42:40;;;;;;;28.07;12.10;;;;;;;0.84;58.79;99286.53;1747040;82;21154;-71
2021/01/13 09:45:09;;;;;;;23.70;10.75;;;;;;;0.85;58.97;99282.83;1747036;82;21143;-70
2021/01/13 09:47:37;;;;;;;25.82;11.73;;;;;;;0.91;58.91;99284.37;1738828;80;21503;-69
2021/01/13 09:50:10;;;;;;;25.75;11.18;;;;;;;0.95;58.69;99284.38;1714899;83;21268;-72
2021/01/13 09:52:40;;;;;;;23.12;12.07;;;;;;;0.97;58.65;99277.98;1714256;82;21164;-72
2021/01/13 09:55:09;;;;;;;28.07;12.20;;;;;;;1.04;58.62;99274.97;1714798;82;21205;-71
2021/01/13 09:57:39;;;;;;;23.98;12.33;;;;;;;1.12;58.49;99270.94;1714367;82;21204;-68
2021/01/13 10:00:13;;;;;;;23.73;11.10;;;;;;;1.17;58.45;99257.30;1715715;82;21192;-68
2021/01/13 10:02:45;;;;;;;21.48;11.25;;;;;;;1.23;58.32;99255.28;1745789;82;21898;-75
2021/01/13 10:07:55;;;;;;;24.18;10.50;;;;;;;1.33;57.95;99241.67;1712672;82;21229;-70
2021/01/13 10:10:28;;;;;;;22.60;9.05;;;;;;;1.35;57.52;99236.95;1657793;85;21196;-70
2021/01/13 10:12:55;;;;;;;26.73;10.23;;;;;;;1.27;57.20;99228.81;1692017;83;21857;-71
2021/01/13 10:15:23;;;;;;;18.07;8.28;;;;;;;1.18;57.24;99227.12;1713056;83;21172;-71
2021/01/13 10:17:51;;;;;;;17.35;8.23;;;;;;;1.14;57.75;99226.61;1692720;83;21189;-71
2021/01/13 10:20:25;;;;;;;15.83;8.40;;;;;;;1.14;57.41;99223.91;1688109;84;21348;-71
2021/01/13 10:22:51;;;;;;;16.35;8.28;;;;;;;1.07;57.73;99216.14;1688410;84;21218;-72
2021/01/13 10:25:29;;;;;;;21.90;9.40;;;;;;;1.08;57.74;99219.69;1687101;84;21200;-75
2021/01/13 10:27:58;;;;;;;18.02;8.68;;;;;;;1.11;57.73;99213.45;1695480;84;21203;-73
2021/01/13 10:30:26;;;;;;;16.93;7.78;;;;;;;1.18;57.87;99209.58;1734030;82;21163;-71
2021/01/13 10:32:55;;;;;;;24.15;9.90;;;;;;;1.24;57.59;99207.06;1688566;84;21416;-70
2021/01/13 10:35:36;;;;;;;23.47;9.08;;;;;;;1.29;57.47;99199.81;1714014;81;21158;-70
2021/01/13 10:38:04;;;;;;;19.20;7.35;;;;;;;1.34;57.05;99201.53;1714194;83;21184;-69
2021/01/13 10:40:32;;;;;;;14.68;7.20;;;;;;;1.36;56.67;99198.66;1721371;82;22293;-71
2021/01/13 10:42:59;;;;;;;13.93;6.40;;;;;;;1.36;56.23;99190.56;1706399;82;21180;-67
2021/01/13 10:45:31;;;;;;;19.32;8.00;;;;;;;1.22;55.71;99186.66;1706007;82;22040;-72
2021/01/13 10:48:04;;;;;;;15.58;6.92;;;;;;;1.10;55.99;99186.65;1718157;81;21792;-69
2021/01/13 10:50:37;;;;;;;12.18;6.58;;;;;;;1.02;56.19;99177.20;1717104;81;21745;-70
2021/01/13 10:53:10;;;;;;;12.70;6.25;;;;;;;1.00;55.97;99178.72;1692072;83;21373;-70
2021/01/13 10:55:44;;;;;;;17.10;6.85;;;;;;;0.82;55.86;99168.58;1711396;82;21891;-70
2021/01/13 10:58:13;;;;;;;14.35;7.08;;;;;;;0.60;56.27;99167.31;1692665;83;21212;-71
2021/01/13 11:00:41;;;;;;;17.17;8.00;;;;;;;0.52;56.77;99164.60;1685430;85;21157;-67
2021/01/13 11:03:09;;;;;;;17.82;7.62;;;;;;;0.50;56.99;99156.69;1700618;83;21173;-70
2021/01/13 11:05:38;;;;;;;13.80;7.03;;;;;;;0.55;57.48;99147.60;1714491;81;21475;-68
2021/01/13 11:08:05;;;;;;;13.55;6.35;;;;;;;0.64;57.55;99147.11;1719347;82;21925;-66
2021/01/13 11:10:34;;;;;;;18.12;8.35;;;;;;;0.74;57.52;99152.39;1700603;83;21329;-67
2021/01/13 11:13:04;;;;;;;20.52;7.05;;;;;;;0.80;57.27;99149.88;1719304;81;21164;-66
2021/01/13 11:15:34;;;;;;;15.70;8.13;;;;;;;0.80;57.21;99153.91;1690081;83;21432;-67
2021/01/13 11:18:01;;;;;;;17.15;7.62;;;;;;;0.76;57.15;99147.67;1687130;85;21353;-71
2021/01/13 11:20:29;;;;;;;20.55;10.03;;;;;;;0.70;57.42;99140.25;1673760;83;21528;-72
2021/01/13 11:23:01;;;;;;;19.57;8.33;;;;;;;0.67;57.48;99144.12;1712859;83;21251;-68
2021/01/13 11:25:36;;;;;;;20.00;9.63;;;;;;;0.71;57.80;99136.05;1717341;82;21150;-73
2021/01/13 11:28:13;;;;;;;17.50;8.90;;;;;;;0.73;57.55;99129.98;1716321;81;21911;-73
2021/01/13 11:30:45;;;;;;;17.23;7.85;;;;;;;0.71;57.75;99124.41;1701440;83;21174;-73
2021/01/13 11:33:15;;;;;;;19.75;9.60;;;;;;;0.70;57.63;99119.53;1660935;86;21486;-74
2021/01/13 11:35:47;;;;;;;19.25;8.98;;;;;;;0.72;57.76;99109.93;1717149;82;21186;-75
2021/01/13 11:38:50;;;;;;;21.33;8.15;;;;;;;0.78;57.69;99105.22;1717322;83;21473;-74
2021/01/13 11:41:59;;;;;;;19.10;7.12;;;;;;;0.79;57.53;99106.40;1717300;82;21155;-73
2021/01/13 11:44:35;;;;;;;16.50;6.37;;;;;;;0.61;57.27;99102.98;1720515;82;21140;-74
2021/01/13 11:47:19;;;;;;;18.32;7.22;;;;;;;0.47;57.40;99106.32;1723361;82;21855;-72
2021/01/13 11:49:53;;;;;;;14.47;6.22;;;;;;;0.36;57.57;99103.43;1717181;82;21974;-67
2021/01/13 11:52:24;;;;;;;18.02;7.97;;;;;;;0.33;57.69;99093.48;1722798;81;21889;-69
2021/01/13 11:54:55;;;;;;;15.32;7.30;;;;;;;0.34;57.79;99103.26;1714834;82;21342;-70
2021/01/13 11:57:36;;;;;;;27.42;7.55;;;;;;;0.37;58.13;99105.12;1723944;82;21209;-72
2021/01/13 12:00:21;;;;;;;14.50;7.42;;;;;;;0.46;58.01;99105.48;1725555;82;21401;-67
2021/01/13 12:02:52;;;;;;;16.10;7.55;;;;;;;0.56;57.83;99099.44;1722823;82;21392;-68
2021/01/13 12:05:34;;;;;;;14.90;6.25;;;;;;;0.59;57.29;99089.67;1720996;82;21233;-69
2021/01/13 12:08:17;;;;;;;13.00;5.97;;;;;;;0.56;57.70;99085.95;1727064;81;21227;-69
2021/01/13 12:10:51;;;;;;;9.83;5.55;;;;;;;0.56;57.23;99091.85;1722697;81;21498;-68
2021/01/13 12:13:26;;;;;;;12.78;6.03;;;;;;;0.56;57.22;99083.77;1719987;82;21281;-67
2021/01/13 12:15:58;;;;;;;10.48;5.42;;;;;;;0.52;57.27;99072.48;1718980;82;21198;-68
2021/01/13 12:18:31;;;;;;;13.83;6.00;;;;;;;0.57;57.31;99076.02;1720894;81;21400;-69
2021/01/13 12:21:14;;;;;;;10.53;5.58;;;;;;;0.59;57.47;99061.88;1715252;81;21170;-69
2021/01/13 12:23:42;;;;;;;15.75;6.10;;;;;;;0.65;57.44;99073.37;1704504;83;21225;-67
2021/01/13 12:26:30;;;;;;;12.37;5.53;;;;;;;0.67;57.28;99066.46;1702259;83;21197;-67
2021/01/13 12:29:05;;;;;;;10.15;5.28;;;;;;;0.62;56.98;99054.30;1723827;82;21436;-68
2021/01/13 12:31:45;;;;;;;9.88;5.28;;;;;;;0.60;57.45;99043.35;1670598;83;21185;-67
2021/01/13 12:34:27;;;;;;;12.82;5.30;;;;;;;0.67;58.28;99040.36;1727635;81;21936;-69
2021/01/13 12:36:57;;;;;;;8.68;5.05;;;;;;;0.76;57.84;99038.50;1701003;83;21429;-69
2021/01/13 12:39:27;;;;;;;15.32;5.28;;;;;;;0.81;57.81;99036.14;1727479;81;21779;-68
2021/01/13 12:41:56;;;;;;;10.00;4.42;;;;;;;0.84;57.41;99037.99;1725248;81;21209;-69
2021/01/13 12:44:23;;;;;;;9.00;4.62;;;;;;;0.87;57.39;99043.55;1717741;83;21284;-69
2021/01/13 12:46:58;;;;;;;11.55;5.17;;;;;;;0.87;57.14;99039.00;1709522;83;21311;-71
2021/01/13 12:49:26;;;;;;;12.93;4.50;;;;;;;0.88;56.85;99039.34;1700666;83;21472;-77
2021/01/13 12:51:56;;;;;;;8.28;4.58;;;;;;;0.84;56.84;99037.15;1727585;83;21147;-67
2021/01/13 12:54:24;;;;;;;11.55;3.95;;;;;;;0.83;56.59;99037.66;1721608;81;21145;-63
2021/01/13 12:56:52;;;;;;;10.18;4.42;;;;;;;0.80;56.41;99043.39;1697119;83;21363;-67
2021/01/13 12:59:19;;;;;;;8.85;4.05;;;;;;;0.75;56.35;99049.79;1694543;83;21493;-72
2021/01/13 13:01:47;;;;;;;9.25;4.90;;;;;;;0.73;56.59;99046.42;1694461;84;21449;-69
2021/01/13 13:04:15;;;;;;;12.98;5.15;;;;;;;0.74;56.72;99049.45;1728390;81;21436;-69
2021/01/13 13:06:43;;;;;;;9.15;4.80;;;;;;;0.78;56.56;99049.45;1705250;83;21545;-72
2021/01/13 13:09:13;;;;;;;11.53;5.70;;;;;;;0.80;56.65;99043.39;1718447;82;21146;-77
2021/01/13 13:11:44;;;;;;;9.28;4.25;;;;;;;0.84;56.42;99042.55;1700513;83;21913;-64
2021/01/13 13:14:12;;;;;;;6.78;4.15;;;;;;;0.77;56.22;99045.07;1719140;81;21142;-66
2021/01/13 13:16:39;;;;;;;5.90;3.65;;;;;;;0.69;56.38;99045.58;1712990;83;21301;-71
2021/01/13 13:19:07;;;;;;;8.15;4.17;;;;;;;0.68;56.54;99040.69;1702043;83;21579;-69
2021/01/13 13:21:36;;;;;;;5.90;3.27;;;;;;;0.70;56.55;99041.36;1702644;82;21206;-75
2021/01/13 13:27:11;;;;;;;9.00;3.40;;;;;;;0.70;56.33;99049.95;1670702;83;21090;-67
2021/01/13 13:30:03;;;;;;;9.05;3.30;;;;;;;0.68;56.25;99042.04;1659209;85;21430;-72
2021/01/13 13:32:51;;;;;;;6.58;3.30;;;;;;;0.70;56.36;99044.06;1659761;85;21798;-68
2021/01/13 13:35:19;;;;;;;5.75;3.35;;;;;;;0.70;56.29;99035.97;1655522;85;21197;-65
2021/01/13 13:37:46;;;;;;;10.03;3.95;;;;;;;0.71;56.29;99034.97;1660015;85;21755;-66
2021/01/13 13:40:15;;;;;;;9.28;4.25;;;;;;;0.67;56.22;99029.57;1655500;86;21258;-68
2021/01/13 13:42:43;;;;;;;11.10;4.65;;;;;;;0.63;56.14;99029.54;1657001;85;21237;-70
2021/01/13 13:45:20;;;;;;;6.97;3.50;;;;;;;0.56;56.36;99023.98;1660967;86;21414;-70
2021/01/13 13:47:56;;;;;;;8.93;3.90;;;;;;;0.55;56.67;99028.19;1636631;85;21472;-71
2021/01/13 13:50:32;;;;;;;7.10;3.65;;;;;;;0.53;56.66;99018.09;1660140;86;21902;-72
2021/01/13 13:53:05;;;;;;;8.03;3.60;;;;;;;0.55;56.99;99021.45;1659882;85;21210;-67
2021/01/13 13:55:57;;;;;;;6.78;3.83;;;;;;;0.53;57.18;99016.73;1657541;86;21202;-69
2021/01/13 13:58:26;;;;;;;6.33;3.77;;;;;;;0.55;57.25;99018.76;1691733;84;21173;-70
2021/01/13 14:01:47;;;;;;;8.83;3.85;;;;;;;0.56;57.08;99023.98;1693683;84;21249;-70
2021/01/13 14:04:50;;;;;;;10.85;3.98;;;;;;;0.59;56.77;99018.25;1661825;86;21189;-73
2021/01/13 14:07:31;;;;;;;9.95;4.20;;;;;;;0.58;57.29;99017.91;1681946;85;21386;-64
2021/01/13 14:10:07;;;;;;;7.85;3.50;;;;;;;0.60;57.46;99005.63;1684807;84;21433;-67
2021/01/13 14:12:44;;;;;;;7.55;3.77;;;;;;;0.56;56.88;99015.05;1683994;83;21647;-65
2021/01/13 14:15:12;;;;;;;9.15;4.00;;;;;;;0.52;57.24;99009.66;1690756;84;21387;-65
2021/01/13 14:17:40;;;;;;;8.60;4.08;;;;;;;0.52;57.12;99004.27;1694399;84;21388;-72
2021/01/13 14:20:09;;;;;;;10.25;4.10;;;;;;;0.54;57.05;99005.79;1695945;84;21145;-69
2021/01/13 14:22:39;;;;;;;9.33;3.80;;;;;;;0.55;56.89;99008.82;1688752;84;21345;-68
2021/01/13 14:25:08;;;;;;;7.40;4.03;;;;;;;0.54;56.71;99004.95;1696807;84;21344;-67
2021/01/13 14:27:36;;;;;;;8.03;3.90;;;;;;;0.53;56.80;99005.95;1697201;84;21465;-68
2021/01/13 14:30:06;;;;;;;12.63;4.17;;;;;;;0.55;56.79;99003.94;1691030;84;21169;-74
2021/01/13 14:32:33;;;;;;;9.70;4.83;;;;;;;0.59;56.73;99007.98;1669826;84;21150;-73
2021/01/13 14:35:01;;;;;;;10.35;4.90;;;;;;;0.59;56.69;99016.06;1683997;84;21195;-73
2021/01/13 14:37:34;;;;;;;13.53;5.08;;;;;;;0.59;56.69;99009.33;1679417;84;21203;-70
2021/01/13 14:40:01;;;;;;;10.23;5.17;;;;;;;0.62;56.81;99011.69;1667587;84;21533;-76
2021/01/13 14:42:29;;;;;;;9.15;4.83;;;;;;;0.63;57.04;99013.37;1691636;84;21221;-68
2021/01/13 14:44:56;;;;;;;9.78;4.22;;;;;;;0.62;56.78;99014.38;1697713;84;21588;-71
2021/01/13 14:47:29;;;;;;;11.38;5.33;;;;;;;0.61;56.75;99014.05;1694538;84;21869;-72
2021/01/13 14:49:56;;;;;;;13.60;4.67;;;;;;;0.60;56.83;99021.79;1696342;84;21994;-75
2021/01/13 14:52:24;;;;;;;6.60;4.22;;;;;;;0.54;56.67;99015.22;1698996;84;21348;-68
2021/01/13 14:54:51;;;;;;;12.35;4.47;;;;;;;0.49;56.92;99017.58;1696988;84;22001;-68
2021/01/13 14:57:19;;;;;;;9.43;4.53;;;;;;;0.43;57.02;99016.90;1705043;83;21917;-70
2021/01/13 14:59:46;;;;;;;8.65;4.22;;;;;;;0.44;57.03;99013.20;1713785;83;21271;-73
2021/01/13 15:02:14;;;;;;;9.63;4.80;;;;;;;0.42;57.01;99018.41;1708937;83;21911;-69
2021/01/13 15:04:41;;;;;;;9.93;5.22;;;;;;;0.37;57.24;99010.83;1701256;83;21392;-67
2021/01/13 15:07:09;;;;;;;13.75;7.70;;;;;;;0.32;57.16;99002.41;1710463;83;21364;-67
2021/01/13 15:09:37;;;;;;;10.88;5.53;;;;;;;0.29;57.34;99006.28;1714078;83;21220;-68
2021/01/13 15:12:05;;;;;;;12.20;5.85;;;;;;;0.25;57.55;99007.62;1711203;83;21901;-70
2021/01/13 15:14:35;;;;;;;12.65;6.15;;;;;;;0.22;57.54;99009.80;1711351;83;21195;-67
2021/01/13 15:17:08;;;;;;;10.70;5.15;;;;;;;0.17;57.74;99003.56;1684992;85;21227;-66
2021/01/13 15:19:35;;;;;;;8.93;4.40;;;;;;;0.17;57.89;99000.88;1685087;85;21327;-63
2021/01/13 15:22:03;;;;;;;11.55;5.62;;;;;;;0.15;57.79;98996.16;1684469;85;21904;-64
2021/01/13 15:24:34;;;;;;;13.85;5.28;;;;;;;0.11;57.95;98992.11;1638475;86;21589;-64
2021/01/13 15:27:00;;;;;;;9.08;4.50;;;;;;;0.07;58.00;99001.53;1699861;83;21781;-63
2021/01/13 15:29:27;;;;;;;9.80;4.78;;;;;;;0.07;58.34;98995.30;1680017;85;21372;-68
2021/01/13 15:31:55;;;;;;;10.70;5.05;;;;;;;0.12;58.45;99003.22;1672636;85;21353;-67
2021/01/13 15:34:23;;;;;;;10.98;4.92;;;;;;;0.14;58.45;98995.83;1650319;86;21876;-67
2021/01/13 15:36:51;;;;;;;8.73;4.80;;;;;;;0.17;58.46;99000.88;1665978;86;21204;-65
2021/01/13 15:39:18;;;;;;;8.38;4.62;;;;;;;0.22;58.64;98999.88;1664452;86;21184;-66
2021/01/13 15:41:46;;;;;;;7.55;3.75;;;;;;;0.27;58.64;98996.68;1662808;85;21284;-66
2021/01/13 15:44:13;;;;;;;9.00;4.65;;;;;;;0.30;58.59;98994.50;1641505;86;21904;-67
2021/01/13 15:46:42;;;;;;;9.00;4.60;;;;;;;0.32;58.66;98997.02;1634238;87;21161;-69
2021/01/13 15:49:11;;;;;;;9.93;4.67;;;;;;;0.34;58.85;99002.24;1685825;85;21419;-67
2021/01/13 15:51:43;;;;;;;7.80;4.15;;;;;;;0.39;58.59;99001.23;1685310;85;21467;-67
2021/01/13 15:54:14;;;;;;;9.13;4.22;;;;;;;0.33;58.41;98988.44;1661118;85;21180;-69
2021/01/13 15:57:06;;;;;;;8.63;4.67;;;;;;;0.25;58.40;98991.46;1646912;85;21225;-69
2021/01/13 16:00:01;;;;;;;8.75;4.37;;;;;;;0.16;58.57;98997.84;1616587;87;21472;-64
2021/01/13 16:02:29;;;;;;;10.60;5.30;;;;;;;0.18;58.69;98994.98;1633475;86;21209;-68
2021/01/13 16:04:57;;;;;;;10.03;4.53;;;;;;;0.16;58.67;98983.03;1679417;84;21295;-68
2021/01/13 16:07:27;;;;;;;8.35;4.90;;;;;;;0.14;58.55;98989.59;1649349;86;21966;-67
2021/01/13 16:09:55;;;;;;;9.48;4.95;;;;;;;0.08;58.76;98987.56;1655929;86;21201;-69
2021/01/13 16:13:01;;;;;;;8.65;4.15;;;;;;;0.10;58.89;98983.70;1665821;84;21786;-67
2021/01/13 16:16:16;;;;;;;11.97;5.00;;;;;;;0.09;58.87;98981.17;1665907;84;21410;-68
2021/01/13 16:18:52;;;;;;;8.53;4.60;;;;;;;0.03;59.04;98985.37;1665131;84;21185;-69
2021/01/13 16:21:20;;;;;;;10.23;4.90;;;;;;;0.04;59.17;98979.48;1667950;86;21639;-65
2021/01/13 16:23:48;;;;;;;9.88;4.55;;;;;;;0.04;59.32;98983.02;1661932;86;21197;-67
2021/01/13 16:26:18;;;;;;;10.08;5.00;;;;;;;0.05;59.47;98986.05;1636446;86;21352;-69
2021/01/13 16:28:46;;;;;;;8.73;4.40;;;;;;;0.05;59.55;98983.35;1661496;85;21223;-69
2021/01/13 16:31:37;;;;;;;9.38;4.75;;;;;;;0.08;59.66;98985.71;1661775;85;21884;-69
2021/01/13 16:34:55;;;;;;;9.50;4.42;;;;;;;0.09;59.68;98984.70;1661302;85;21162;-65
2021/01/13 16:37:35;;;;;;;10.72;4.33;;;;;;;0.11;59.74;98982.69;1660921;86;21671;-68
2021/01/13 16:40:28;;;;;;;8.05;4.20;;;;;;;0.12;59.71;98992.45;1660851;86;21396;-64
2021/01/13 16:42:57;;;;;;;9.10;4.62;;;;;;;0.14;59.57;98991.78;1660372;86;21198;-62
2021/01/13 16:45:45;;;;;;;11.05;4.47;;;;;;;0.15;59.55;98989.43;1662723;86;21638;-68
2021/01/13 16:48:31;;;;;;;10.72;5.12;;;;;;;0.19;59.50;98992.12;1660471;86;21327;-67
2021/01/13 16:51:19;;;;;;;9.48;4.03;;;;;;;0.22;59.61;98987.75;1660633;86;21209;-65
2021/01/13 16:53:48;;;;;;;9.00;5.05;;;;;;;0.24;59.63;98983.05;1661941;86;21905;-66
2021/01/13 16:56:18;;;;;;;7.10;3.52;;;;;;;0.27;59.65;98977.32;1660984;86;21209;-67
2021/01/13 16:58:51;;;;;;;10.40;4.60;;;;;;;0.24;59.52;98984.39;1660411;86;21146;-65
2021/01/13 17:01:21;;;;;;;9.23;4.53;;;;;;;0.21;59.68;98985.23;1659271;86;21416;-63
2021/01/13 17:03:51;;;;;;;11.28;4.75;;;;;;;0.19;59.84;98985.39;1660514;86;21340;-66
2021/01/13 17:06:30;;;;;;;9.58;4.80;;;;;;;0.22;59.98;98981.02;1654933;86;21477;-67
2021/01/13 17:09:22;;;;;;;8.90;4.15;;;;;;;0.26;60.09;98983.72;1630123;86;21415;-63
2021/01/13 17:12:25;;;;;;;8.63;4.53;;;;;;;0.30;60.03;98983.72;1628566;86;21230;-66
2021/01/13 17:14:58;;;;;;;7.65;4.60;;;;;;;0.26;59.86;98991.80;1628881;87;21214;-70
2021/01/13 17:17:29;;;;;;;9.43;4.22;;;;;;;0.16;60.16;98988.42;1651200;85;21216;-64
2021/01/13 17:20:00;;;;;;;7.80;4.50;;;;;;;0.13;60.35;98985.22;1639292;86;21243;-64
2021/01/13 17:22:28;;;;;;;8.78;4.35;;;;;;;0.06;60.50;98984.20;1634180;87;21470;-67
2021/01/13 17:24:57;;;;;;;11.00;4.33;;;;;;;0.03;60.66;98977.80;1633809;87;21983;-70
2021/01/13 17:27:24;;;;;;;10.08;4.87;;;;;;;0.01;60.77;98971.23;1668856;86;21631;-73
2021/01/13 17:29:52;;;;;;;8.25;4.50;;;;;;;-0.01;60.82;98977.25;1640134;87;21270;-68
2021/01/13 17:32:19;;;;;;;13.80;5.05;;;;;;;-0.03;60.96;98980.61;1660923;86;22005;-70
2021/01/13 17:34:47;;;;;;;13.88;5.17;;;;;;;-0.03;60.93;98989.53;1660657;86;21200;-70
2021/01/13 17:37:15;;;;;;;9.18;4.12;;;;;;;0.02;61.04;98988.23;1661399;86;21617;-75
2021/01/13 17:39:43;;;;;;;10.25;4.80;;;;;;;0.01;60.85;98976.61;1660904;86;21360;-68
2021/01/13 17:42:11;;;;;;;10.53;4.60;;;;;;;-0.10;60.98;98981.78;1636759;86;21440;-67
2021/01/13 17:44:39;;;;;;;8.75;4.70;;;;;;;-0.10;61.39;98974.20;1658452;86;21960;-65
2021/01/13 17:47:09;;;;;;;10.43;4.67;;;;;;;-0.07;61.51;98969.84;1656229;86;21202;-66
2021/01/13 17:49:37;;;;;;;8.98;4.62;;;;;;;-0.05;61.38;98966.47;1650412;85;21394;-66
2021/01/13 17:52:05;;;;;;;9.28;4.10;;;;;;;-0.01;61.24;98969.17;1646552;85;21514;-65
2021/01/13 17:54:32;;;;;;;8.43;4.80;;;;;;;0.01;60.88;98963.16;1611011;86;21179;-63
2021/01/13 17:57:00;;;;;;;6.85;3.77;;;;;;;-0.01;60.60;98967.83;1652029;86;21256;-65
2021/01/13 17:59:28;;;;;;;10.05;4.50;;;;;;;-0.04;60.55;98970.34;1641051;85;21895;-64
2021/01/13 18:02:00;;;;;;;9.25;4.53;;;;;;;-0.06;60.48;98962.09;1645289;86;21194;-64
2021/01/13 18:04:32;;;;;;;11.40;4.40;;;;;;;-0.01;60.41;98969.17;1663861;86;21944;-69
2021/01/13 18:07:00;;;;;;;7.55;4.30;;;;;;;0.07;60.31;98958.45;1663194;86;21981;-72
2021/01/13 18:09:28;;;;;;;9.30;4.55;;;;;;;0.15;60.27;98967.88;1681410;85;21201;-70
2021/01/13 18:11:56;;;;;;;11.63;5.05;;;;;;;0.23;60.14;98961.66;1661726;86;21717;-69
2021/01/13 18:14:23;;;;;;;13.88;5.90;;;;;;;0.29;59.91;98971.27;1685469;84;21486;-68
2021/01/13 18:16:50;;;;;;;17.07;6.45;;;;;;;0.23;59.71;98973.78;1669275;85;21490;-70
2021/01/13 18:19:18;;;;;;;12.93;6.40;;;;;;;0.13;59.93;98964.52;1668177;86;21485;-69
2021/01/13 18:21:45;;;;;;;11.60;4.37;;;;;;;0.12;59.98;98957.95;1668896;86;21449;-68
2021/01/13 18:24:14;;;;;;;10.08;5.00;;;;;;;0.09;60.18;98959.13;1668906;85;21881;-68
2021/01/13 18:26:41;;;;;;;10.20;5.40;;;;;;;0.05;60.27;98957.77;1668804;86;21395;-68
2021/01/13 18:29:09;;;;;;;10.78;5.12;;;;;;;0.05;60.28;98960.97;1668969;86;21430;-69
2021/01/13 18:31:40;;;;;;;10.13;5.40;;;;;;;0.03;60.07;98967.03;1668847;86;21189;-68
2021/01/13 18:34:08;;;;;;;12.93;4.70;;;;;;;-0.05;60.20;98962.44;1669226;86;21338;-68
2021/01/13 18:36:36;;;;;;;8.23;4.10;;;;;;;-0.09;60.25;98966.47;1669012;86;21539;-69
2021/01/13 18:39:05;;;;;;;12.33;5.30;;;;;;;-0.21;60.42;98979.39;1669277;86;21174;-69
2021/01/13 18:41:34;;;;;;;13.90;4.90;;;;;;;-0.33;60.56;98973.98;1669333;86;21211;-70
2021/01/13 18:44:02;;;;;;;10.45;5.30;;;;;;;-0.42;60.96;98966.38;1669209;86;21347;-68
2021/01/13 18:46:43;;;;;;;12.30;5.22;;;;;;;-0.40;61.30;98969.75;1669739;84;21347;-70
2021/01/13 18:49:10;;;;;;;11.55;5.87;;;;;;;-0.35;61.36;98980.02;1670827;86;21216;-68
2021/01/13 18:51:37;;;;;;;12.33;6.03;;;;;;;-0.28;61.43;98978.87;1669208;84;21338;-69
2021/01/13 18:54:05;;;;;;;11.35;4.92;;;;;;;-0.21;61.31;98983.94;1669231;84;21380;-69
2021/01/13 18:56:33;;;;;;;11.40;5.40;;;;;;;-0.20;61.01;98977.55;1669275;84;21384;-69
2021/01/13 18:59:00;;;;;;;10.32;5.33;;;;;;;-0.26;61.08;98975.51;1660577;85;21272;-68
2021/01/13 19:01:28;;;;;;;11.85;5.60;;;;;;;-0.26;61.18;98979.55;1654094;86;21169;-68
2021/01/13 19:03:55;;;;;;;12.45;6.22;;;;;;;-0.23;61.32;98981.41;1654271;86;21483;-67
2021/01/13 19:06:30;;;;;;;12.30;5.97;;;;;;;-0.18;61.26;98975.53;1654719;85;21889;-68
2021/01/13 19:09:00;;;;;;;10.88;5.67;;;;;;;-0.15;61.28;98972.51;1654488;85;21170;-69
2021/01/13 19:11:36;;;;;;;16.12;8.20;;;;;;;-0.12;61.18;98970.33;1653789;86;22228;-68
2021/01/13 19:14:05;;;;;;;15.55;7.58;;;;;;;-0.12;61.15;98966.80;1649813;86;21214;-70
2021/01/13 19:16:33;;;;;;;18.30;7.03;;;;;;;-0.11;61.22;98968.48;1654393;86;21316;-67
2021/01/13 19:19:00;;;;;;;13.13;6.92;;;;;;;-0.13;61.27;98969.99;1654658;85;21543;-68
2021/01/13 19:21:28;;;;;;;12.60;6.22;;;;;;;-0.17;61.46;98969.14;1654297;86;21452;-68
2021/01/13 19:23:55;;;;;;;13.70;5.85;;;;;;;-0.17;61.54;98961.91;1654304;85;21178;-68
2021/01/13 19:26:23;;;;;;;16.07;7.03;;;;;;;-0.16;61.55;98962.75;1654466;85;21564;-69
2021/01/13 19:28:51;;;;;;;20.72;8.90;;;;;;;-0.19;61.56;98967.12;1654223;85;21376;-70
2021/01/13 19:31:21;;;;;;;24.50;9.90;;;;;;;-0.24;61.70;98964.92;1654367;85;21505;-69
2021/01/13 19:33:48;;;;;;;22.22;8.70;;;;;;;-0.26;61.89;98971.47;1653648;85;21576;-69
2021/01/13 19:36:15;;;;;;;21.65;8.20;;;;;;;-0.27;61.92;98967.09;1651848;85;21860;-70
2021/01/13 19:38:43;;;;;;;16.10;7.62;;;;;;;-0.28;61.97;98966.76;1607955;88;21553;-68
2021/01/13 19:41:12;;;;;;;14.40;7.10;;;;;;;-0.34;61.89;98968.25;1633671;87;21276;-69
2021/01/13 19:43:41;;;;;;;16.85;7.65;;;;;;;-0.45;62.01;98971.25;1652545;86;21177;-69
2021/01/13 19:46:09;;;;;;;14.45;7.45;;;;;;;-0.49;62.23;98969.88;1633367;87;21393;-67
2021/01/13 19:48:36;;;;;;;16.02;6.70;;;;;;;-0.47;62.39;98967.38;1653691;86;21213;-69
2021/01/13 19:51:04;;;;;;;14.40;7.03;;;;;;;-0.46;62.35;98965.02;1656815;86;21664;-68
2021/01/13 19:53:32;;;;;;;17.73;7.70;;;;;;;-0.48;62.36;98956.77;1653232;86;21249;-71
2021/01/13 19:56:02;;;;;;;18.73;8.53;;;;;;;-0.47;62.47;98959.30;1634976;87;21989;-67
2021/01/13 19:58:29;;;;;;;18.92;8.38;;;;;;;-0.43;62.51;98966.55;1612844;87;21540;-68
2021/01/13 20:00:56;;;;;;;14.63;6.92;;;;;;;-0.45;62.39;98955.11;1598779;89;21246;-68
2021/01/13 20:03:23;;;;;;;14.47;6.70;;;;;;;-0.56;62.47;98949.52;1598779;89;21353;-69
2021/01/13 20:05:51;;;;;;;12.98;5.65;;;;;;;-0.63;62.67;98947.14;1598771;89;21509;-70
2021/01/13 20:08:19;;;;;;;15.13;7.78;;;;;;;-0.70;62.94;98947.42;1598798;89;21252;-70
2021/01/13 20:10:47;;;;;;;15.50;6.87;;;;;;;-0.77;63.08;98948.56;1622196;88;21852;-68
2021/01/13 20:13:14;;;;;;;15.85;6.65;;;;;;;-0.74;63.29;98940.67;1665156;86;21599;-69
2021/01/13 20:15:42;;;;;;;17.05;6.53;;;;;;;-0.70;63.34;98938.84;1665103;86;21368;-67